Current Conditions
Partly Cloudy
Conditions



Pressure
1003.92 (hPa) - 29.65 (inHG)
Visibility

6.2 (miles) - 10.0 (km)
Temperature
16  °C
Temperature
10  °C
Dewpoint
68  %
 Humidity
Wind Speed
14  mph
12  kts
23  km/h
6.3  m/s
Wind Direction
N
45°
E
90°
135°
S
180°
225°
W
270°
315°
 240°

West South
West
Airport Data
EGAC
George Best Belfast City Airport
Metar :EGAC 221550Z AUTO 24012G18KT 210V270 9999 FEW040/// 16/10 Q1004
Sun 22nd May 16:50 pm
Raw Metar Info
Raw METAR is the most common format in the world for the transmission of observational weather data. It is highly standardized through the International Civil Aviation Organization (ICAO), which allows it to be understood throughout most of the world.
API Info
Data Provided by
https://www.checkwx.com/weather/EGAC

Aviation Weather providing METAR, TAF, AIRMET, SIGMET and OUTLOOK Weather Reports
© Info
CSS/SVG/PHP scripts were developed by weather34 for use in the weather34 template © 2015-2022

Guide Info provided by Metar-Wikipedia